sensor_id;sensor_type;location;lat;lon;timestamp;P1;durP1;ratioP1;P2;durP2;ratioP2
56345;SDS011;42246;46.096;13.644;2024-02-04T00:01:18;11.07;;;5.07;;
56345;SDS011;42246;46.096;13.644;2024-02-04T00:03:44;9.43;;;4.78;;
56345;SDS011;42246;46.096;13.644;2024-02-04T00:06:09;10.00;;;5.85;;
56345;SDS011;42246;46.096;13.644;2024-02-04T00:08:35;10.77;;;5.90;;
56345;SDS011;42246;46.096;13.644;2024-02-04T00:11:01;8.15;;;4.45;;
56345;SDS011;42246;46.096;13.644;2024-02-04T00:13:29;6.22;;;4.13;;
56345;SDS011;42246;46.096;13.644;2024-02-04T00:15:55;10.55;;;4.32;;
56345;SDS011;42246;46.096;13.644;2024-02-04T00:18:23;7.85;;;3.85;;
56345;SDS011;42246;46.096;13.644;2024-02-04T00:20:49;9.73;;;4.68;;
56345;SDS011;42246;46.096;13.644;2024-02-04T00:23:14;8.82;;;5.07;;
56345;SDS011;42246;46.096;13.644;2024-02-04T00:25:40;8.98;;;4.07;;
56345;SDS011;42246;46.096;13.644;2024-02-04T00:28:06;7.93;;;4.32;;
56345;SDS011;42246;46.096;13.644;2024-02-04T00:30:32;8.45;;;5.22;;
56345;SDS011;42246;46.096;13.644;2024-02-04T00:32:57;12.02;;;5.97;;
56345;SDS011;42246;46.096;13.644;2024-02-04T00:35:28;9.45;;;5.88;;
56345;SDS011;42246;46.096;13.644;2024-02-04T00:37:53;13.32;;;5.75;;
56345;SDS011;42246;46.096;13.644;2024-02-04T00:40:19;7.50;;;4.35;;
56345;SDS011;42246;46.096;13.644;2024-02-04T00:42:44;9.60;;;4.38;;
56345;SDS011;42246;46.096;13.644;2024-02-04T00:45:10;9.27;;;3.50;;
56345;SDS011;42246;46.096;13.644;2024-02-04T00:47:36;7.45;;;4.82;;
56345;SDS011;42246;46.096;13.644;2024-02-04T00:50:01;10.02;;;5.40;;
56345;SDS011;42246;46.096;13.644;2024-02-04T00:52:27;8.02;;;4.53;;
56345;SDS011;42246;46.096;13.644;2024-02-04T00:54:52;6.95;;;4.70;;
56345;SDS011;42246;46.096;13.644;2024-02-04T00:57:17;8.98;;;5.45;;
56345;SDS011;42246;46.096;13.644;2024-02-04T00:59:43;10.32;;;4.45;;
56345;SDS011;42246;46.096;13.644;2024-02-04T01:02:08;8.85;;;4.18;;
56345;SDS011;42246;46.096;13.644;2024-02-04T01:04:34;8.70;;;4.40;;
56345;SDS011;42246;46.096;13.644;2024-02-04T01:06:59;10.75;;;5.55;;
56345;SDS011;42246;46.096;13.644;2024-02-04T01:09:25;9.07;;;4.07;;
56345;SDS011;42246;46.096;13.644;2024-02-04T01:11:50;10.70;;;5.60;;
56345;SDS011;42246;46.096;13.644;2024-02-04T01:14:18;6.88;;;3.92;;
56345;SDS011;42246;46.096;13.644;2024-02-04T01:16:43;8.23;;;4.03;;
56345;SDS011;42246;46.096;13.644;2024-02-04T01:19:08;9.95;;;4.30;;
56345;SDS011;42246;46.096;13.644;2024-02-04T01:21:34;8.57;;;3.83;;
56345;SDS011;42246;46.096;13.644;2024-02-04T01:23:59;8.13;;;4.90;;
56345;SDS011;42246;46.096;13.644;2024-02-04T01:26:25;10.07;;;5.18;;
56345;SDS011;42246;46.096;13.644;2024-02-04T01:28:50;13.75;;;4.43;;
56345;SDS011;42246;46.096;13.644;2024-02-04T01:31:16;8.93;;;4.57;;
56345;SDS011;42246;46.096;13.644;2024-02-04T01:33:41;8.63;;;4.10;;
56345;SDS011;42246;46.096;13.644;2024-02-04T01:36:07;16.17;;;5.65;;
56345;SDS011;42246;46.096;13.644;2024-02-04T01:38:33;8.63;;;5.13;;
56345;SDS011;42246;46.096;13.644;2024-02-04T01:40:58;11.60;;;5.10;;
56345;SDS011;42246;46.096;13.644;2024-02-04T01:43:24;6.65;;;3.67;;
56345;SDS011;42246;46.096;13.644;2024-02-04T01:45:52;7.20;;;3.95;;
56345;SDS011;42246;46.096;13.644;2024-02-04T01:48:18;5.68;;;3.28;;
56345;SDS011;42246;46.096;13.644;2024-02-04T01:50:45;9.15;;;4.05;;
56345;SDS011;42246;46.096;13.644;2024-02-04T01:53:12;5.78;;;2.83;;
56345;SDS011;42246;46.096;13.644;2024-02-04T01:55:38;7.85;;;3.95;;
56345;SDS011;42246;46.096;13.644;2024-02-04T01:58:04;8.43;;;4.32;;
56345;SDS011;42246;46.096;13.644;2024-02-04T02:00:30;6.90;;;4.22;;
56345;SDS011;42246;46.096;13.644;2024-02-04T02:02:56;8.95;;;4.07;;
56345;SDS011;42246;46.096;13.644;2024-02-04T02:05:22;9.57;;;5.05;;
56345;SDS011;42246;46.096;13.644;2024-02-04T02:07:47;7.85;;;4.43;;
56345;SDS011;42246;46.096;13.644;2024-02-04T02:10:16;6.20;;;2.80;;
56345;SDS011;42246;46.096;13.644;2024-02-04T02:12:53;8.80;;;3.45;;
56345;SDS011;42246;46.096;13.644;2024-02-04T02:15:23;12.18;;;5.35;;
56345;SDS011;42246;46.096;13.644;2024-02-04T02:23:30;7.82;;;4.60;;
56345;SDS011;42246;46.096;13.644;2024-02-04T02:25:56;9.15;;;4.28;;
56345;SDS011;42246;46.096;13.644;2024-02-04T02:28:23;8.57;;;3.63;;
56345;SDS011;42246;46.096;13.644;2024-02-04T02:30:48;9.20;;;4.32;;
56345;SDS011;42246;46.096;13.644;2024-02-04T02:33:14;10.10;;;3.47;;
56345;SDS011;42246;46.096;13.644;2024-02-04T02:35:39;8.27;;;5.07;;
56345;SDS011;42246;46.096;13.644;2024-02-04T02:38:19;5.18;;;3.45;;
56345;SDS011;42246;46.096;13.644;2024-02-04T02:40:49;5.85;;;3.72;;
56345;SDS011;42246;46.096;13.644;2024-02-04T02:43:19;7.50;;;4.15;;
56345;SDS011;42246;46.096;13.644;2024-02-04T02:45:44;7.07;;;3.47;;
56345;SDS011;42246;46.096;13.644;2024-02-04T02:48:10;6.78;;;4.25;;
56345;SDS011;42246;46.096;13.644;2024-02-04T02:50:37;8.68;;;4.38;;
56345;SDS011;42246;46.096;13.644;2024-02-04T02:53:03;7.80;;;4.47;;
56345;SDS011;42246;46.096;13.644;2024-02-04T02:55:28;7.80;;;4.07;;
56345;SDS011;42246;46.096;13.644;2024-02-04T02:57:54;6.65;;;3.85;;
56345;SDS011;42246;46.096;13.644;2024-02-04T03:00:19;6.63;;;3.65;;
56345;SDS011;42246;46.096;13.644;2024-02-04T03:02:45;7.68;;;4.22;;
56345;SDS011;42246;46.096;13.644;2024-02-04T03:05:11;9.27;;;4.63;;
56345;SDS011;42246;46.096;13.644;2024-02-04T03:07:37;7.45;;;3.53;;
56345;SDS011;42246;46.096;13.644;2024-02-04T03:10:02;7.32;;;2.97;;
56345;SDS011;42246;46.096;13.644;2024-02-04T03:12:28;11.45;;;5.55;;
56345;SDS011;42246;46.096;13.644;2024-02-04T03:14:53;9.48;;;4.07;;
56345;SDS011;42246;46.096;13.644;2024-02-04T03:17:19;7.65;;;4.10;;
56345;SDS011;42246;46.096;13.644;2024-02-04T03:19:46;8.38;;;3.35;;
56345;SDS011;42246;46.096;13.644;2024-02-04T03:22:12;6.57;;;4.32;;
56345;SDS011;42246;46.096;13.644;2024-02-04T03:24:38;12.95;;;6.57;;
56345;SDS011;42246;46.096;13.644;2024-02-04T03:27:03;7.85;;;4.57;;
56345;SDS011;42246;46.096;13.644;2024-02-04T03:29:29;7.57;;;3.83;;
56345;SDS011;42246;46.096;13.644;2024-02-04T03:31:55;8.32;;;4.75;;
56345;SDS011;42246;46.096;13.644;2024-02-04T03:34:21;8.02;;;4.35;;
56345;SDS011;42246;46.096;13.644;2024-02-04T03:36:46;12.77;;;4.35;;
56345;SDS011;42246;46.096;13.644;2024-02-04T03:39:12;8.02;;;4.10;;
56345;SDS011;42246;46.096;13.644;2024-02-04T03:41:37;9.63;;;4.22;;
56345;SDS011;42246;46.096;13.644;2024-02-04T03:44:03;7.72;;;4.60;;
56345;SDS011;42246;46.096;13.644;2024-02-04T03:46:28;8.13;;;3.92;;
56345;SDS011;42246;46.096;13.644;2024-02-04T03:48:54;6.75;;;3.78;;
56345;SDS011;42246;46.096;13.644;2024-02-04T03:51:19;14.52;;;3.70;;
56345;SDS011;42246;46.096;13.644;2024-02-04T03:53:45;9.23;;;4.72;;
56345;SDS011;42246;46.096;13.644;2024-02-04T03:56:11;7.55;;;3.85;;
56345;SDS011;42246;46.096;13.644;2024-02-04T03:58:36;16.13;;;5.55;;
56345;SDS011;42246;46.096;13.644;2024-02-04T04:01:02;11.95;;;6.07;;
56345;SDS011;42246;46.096;13.644;2024-02-04T04:03:27;7.70;;;4.32;;
56345;SDS011;42246;46.096;13.644;2024-02-04T04:05:53;6.60;;;3.35;;
56345;SDS011;42246;46.096;13.644;2024-02-04T04:08:19;7.40;;;4.10;;
56345;SDS011;42246;46.096;13.644;2024-02-04T04:10:45;9.15;;;3.92;;
56345;SDS011;42246;46.096;13.644;2024-02-04T04:13:11;5.63;;;3.15;;
56345;SDS011;42246;46.096;13.644;2024-02-04T04:15:37;8.55;;;3.42;;
56345;SDS011;42246;46.096;13.644;2024-02-04T04:18:02;5.28;;;3.60;;
56345;SDS011;42246;46.096;13.644;2024-02-04T04:20:28;5.18;;;3.28;;
56345;SDS011;42246;46.096;13.644;2024-02-04T04:22:53;5.15;;;3.33;;
56345;SDS011;42246;46.096;13.644;2024-02-04T04:25:19;5.50;;;3.35;;
56345;SDS011;42246;46.096;13.644;2024-02-04T04:27:44;10.82;;;3.45;;
56345;SDS011;42246;46.096;13.644;2024-02-04T04:30:10;7.97;;;4.00;;
56345;SDS011;42246;46.096;13.644;2024-02-04T04:32:36;8.25;;;4.57;;
56345;SDS011;42246;46.096;13.644;2024-02-04T04:35:01;7.80;;;3.97;;
56345;SDS011;42246;46.096;13.644;2024-02-04T04:37:27;5.28;;;3.80;;
56345;SDS011;42246;46.096;13.644;2024-02-04T04:39:52;8.05;;;3.80;;
56345;SDS011;42246;46.096;13.644;2024-02-04T04:42:18;7.60;;;3.45;;
56345;SDS011;42246;46.096;13.644;2024-02-04T04:44:43;8.65;;;4.22;;
56345;SDS011;42246;46.096;13.644;2024-02-04T04:47:09;5.00;;;3.33;;
56345;SDS011;42246;46.096;13.644;2024-02-04T04:49:34;6.13;;;2.70;;
56345;SDS011;42246;46.096;13.644;2024-02-04T04:51:59;6.88;;;2.97;;
56345;SDS011;42246;46.096;13.644;2024-02-04T04:54:27;5.38;;;3.53;;
56345;SDS011;42246;46.096;13.644;2024-02-04T04:56:52;6.97;;;3.70;;
56345;SDS011;42246;46.096;13.644;2024-02-04T04:59:18;14.05;;;3.85;;
56345;SDS011;42246;46.096;13.644;2024-02-04T05:01:49;7.25;;;3.20;;
56345;SDS011;42246;46.096;13.644;2024-02-04T05:04:15;7.22;;;2.83;;
56345;SDS011;42246;46.096;13.644;2024-02-04T05:06:41;7.80;;;3.83;;
56345;SDS011;42246;46.096;13.644;2024-02-04T05:09:07;9.77;;;3.70;;
56345;SDS011;42246;46.096;13.644;2024-02-04T05:11:32;5.68;;;3.65;;
56345;SDS011;42246;46.096;13.644;2024-02-04T05:13:57;6.13;;;2.95;;
56345;SDS011;42246;46.096;13.644;2024-02-04T05:16:23;4.20;;;2.83;;
56345;SDS011;42246;46.096;13.644;2024-02-04T05:18:48;10.70;;;3.58;;
56345;SDS011;42246;46.096;13.644;2024-02-04T05:21:14;6.65;;;3.22;;
56345;SDS011;42246;46.096;13.644;2024-02-04T05:23:39;7.13;;;3.08;;
56345;SDS011;42246;46.096;13.644;2024-02-04T05:26:05;12.00;;;3.80;;
56345;SDS011;42246;46.096;13.644;2024-02-04T05:28:31;6.22;;;3.92;;
56345;SDS011;42246;46.096;13.644;2024-02-04T05:30:57;10.43;;;4.75;;
56345;SDS011;42246;46.096;13.644;2024-02-04T05:33:22;10.57;;;4.18;;
56345;SDS011;42246;46.096;13.644;2024-02-04T05:35:48;9.75;;;4.30;;
56345;SDS011;42246;46.096;13.644;2024-02-04T05:38:13;8.90;;;4.13;;
56345;SDS011;42246;46.096;13.644;2024-02-04T05:40:39;6.82;;;3.10;;
56345;SDS011;42246;46.096;13.644;2024-02-04T05:43:04;10.23;;;3.55;;
56345;SDS011;42246;46.096;13.644;2024-02-04T05:45:32;7.00;;;3.80;;
56345;SDS011;42246;46.096;13.644;2024-02-04T05:47:58;5.07;;;2.65;;
56345;SDS011;42246;46.096;13.644;2024-02-04T05:50:24;8.23;;;3.95;;
56345;SDS011;42246;46.096;13.644;2024-02-04T05:52:49;5.80;;;2.25;;
56345;SDS011;42246;46.096;13.644;2024-02-04T05:55:15;6.82;;;3.88;;
56345;SDS011;42246;46.096;13.644;2024-02-04T05:57:40;5.78;;;2.55;;
56345;SDS011;42246;46.096;13.644;2024-02-04T06:00:06;14.30;;;4.50;;
56345;SDS011;42246;46.096;13.644;2024-02-04T06:02:33;25.73;;;10.30;;
56345;SDS011;42246;46.096;13.644;2024-02-04T06:04:58;8.73;;;4.10;;
56345;SDS011;42246;46.096;13.644;2024-02-04T06:07:24;6.47;;;2.80;;
56345;SDS011;42246;46.096;13.644;2024-02-04T06:09:50;8.50;;;4.00;;
56345;SDS011;42246;46.096;13.644;2024-02-04T06:12:15;16.15;;;7.93;;
56345;SDS011;42246;46.096;13.644;2024-02-04T06:14:40;9.05;;;4.53;;
56345;SDS011;42246;46.096;13.644;2024-02-04T06:17:06;8.50;;;4.60;;
56345;SDS011;42246;46.096;13.644;2024-02-04T06:19:34;13.00;;;4.82;;
56345;SDS011;42246;46.096;13.644;2024-02-04T06:24:59;35.58;;;20.17;;
56345;SDS011;42246;46.096;13.644;2024-02-04T06:27:24;16.38;;;9.10;;
56345;SDS011;42246;46.096;13.644;2024-02-04T06:29:50;15.18;;;7.53;;
56345;SDS011;42246;46.096;13.644;2024-02-04T06:32:16;18.70;;;10.90;;
56345;SDS011;42246;46.096;13.644;2024-02-04T06:34:41;18.02;;;12.18;;
56345;SDS011;42246;46.096;13.644;2024-02-04T06:37:07;20.40;;;9.82;;
56345;SDS011;42246;46.096;13.644;2024-02-04T06:39:32;12.55;;;8.88;;
56345;SDS011;42246;46.096;13.644;2024-02-04T06:41:58;7.90;;;4.45;;
56345;SDS011;42246;46.096;13.644;2024-02-04T06:44:23;7.90;;;4.63;;
56345;SDS011;42246;46.096;13.644;2024-02-04T06:46:48;12.88;;;7.43;;
56345;SDS011;42246;46.096;13.644;2024-02-04T06:49:14;9.10;;;4.70;;
56345;SDS011;42246;46.096;13.644;2024-02-04T06:51:43;5.85;;;3.03;;
56345;SDS011;42246;46.096;13.644;2024-02-04T06:54:09;8.85;;;3.17;;
56345;SDS011;42246;46.096;13.644;2024-02-04T06:56:35;12.80;;;6.20;;
56345;SDS011;42246;46.096;13.644;2024-02-04T06:59:02;15.20;;;9.25;;
56345;SDS011;42246;46.096;13.644;2024-02-04T07:01:27;12.75;;;7.25;;
56345;SDS011;42246;46.096;13.644;2024-02-04T07:03:53;9.32;;;5.47;;
56345;SDS011;42246;46.096;13.644;2024-02-04T07:06:18;5.50;;;4.05;;
56345;SDS011;42246;46.096;13.644;2024-02-04T07:08:44;8.30;;;3.53;;
56345;SDS011;42246;46.096;13.644;2024-02-04T07:11:09;4.70;;;3.58;;
56345;SDS011;42246;46.096;13.644;2024-02-04T07:13:34;9.60;;;4.18;;
56345;SDS011;42246;46.096;13.644;2024-02-04T07:16:00;10.63;;;5.47;;
56345;SDS011;42246;46.096;13.644;2024-02-04T07:18:26;10.25;;;5.45;;
56345;SDS011;42246;46.096;13.644;2024-02-04T07:20:51;9.50;;;5.35;;
56345;SDS011;42246;46.096;13.644;2024-02-04T07:23:17;6.65;;;4.78;;
56345;SDS011;42246;46.096;13.644;2024-02-04T07:25:42;4.53;;;3.40;;
56345;SDS011;42246;46.096;13.644;2024-02-04T07:28:08;9.07;;;4.85;;
56345;SDS011;42246;46.096;13.644;2024-02-04T07:30:33;10.25;;;5.20;;
56345;SDS011;42246;46.096;13.644;2024-02-04T07:32:59;9.52;;;5.45;;
56345;SDS011;42246;46.096;13.644;2024-02-04T07:35:24;6.97;;;4.50;;
56345;SDS011;42246;46.096;13.644;2024-02-04T07:37:50;9.73;;;5.50;;
56345;SDS011;42246;46.096;13.644;2024-02-04T07:40:15;9.25;;;5.78;;
56345;SDS011;42246;46.096;13.644;2024-02-04T07:42:41;9.18;;;3.47;;
56345;SDS011;42246;46.096;13.644;2024-02-04T07:45:06;12.18;;;5.53;;
56345;SDS011;42246;46.096;13.644;2024-02-04T07:47:34;9.50;;;4.30;;
56345;SDS011;42246;46.096;13.644;2024-02-04T07:50:00;8.15;;;4.85;;
56345;SDS011;42246;46.096;13.644;2024-02-04T07:52:25;11.48;;;5.18;;
56345;SDS011;42246;46.096;13.644;2024-02-04T07:54:50;11.80;;;5.35;;
56345;SDS011;42246;46.096;13.644;2024-02-04T07:57:16;7.18;;;4.38;;
56345;SDS011;42246;46.096;13.644;2024-02-04T07:59:41;10.50;;;3.83;;
56345;SDS011;42246;46.096;13.644;2024-02-04T08:02:07;6.97;;;4.35;;
56345;SDS011;42246;46.096;13.644;2024-02-04T08:04:32;5.45;;;3.55;;
56345;SDS011;42246;46.096;13.644;2024-02-04T08:06:58;10.70;;;5.18;;
56345;SDS011;42246;46.096;13.644;2024-02-04T08:09:23;11.27;;;7.47;;
56345;SDS011;42246;46.096;13.644;2024-02-04T08:11:49;25.95;;;13.02;;
56345;SDS011;42246;46.096;13.644;2024-02-04T08:14:14;19.52;;;11.35;;
56345;SDS011;42246;46.096;13.644;2024-02-04T08:16:42;21.58;;;11.27;;
56345;SDS011;42246;46.096;13.644;2024-02-04T08:19:08;23.98;;;11.38;;
56345;SDS011;42246;46.096;13.644;2024-02-04T08:21:33;35.42;;;16.42;;
56345;SDS011;42246;46.096;13.644;2024-02-04T08:23:59;35.40;;;15.25;;
56345;SDS011;42246;46.096;13.644;2024-02-04T08:26:24;20.33;;;12.43;;
56345;SDS011;42246;46.096;13.644;2024-02-04T08:28:50;13.13;;;7.45;;
56345;SDS011;42246;46.096;13.644;2024-02-04T08:31:15;8.13;;;5.28;;
56345;SDS011;42246;46.096;13.644;2024-02-04T08:33:41;9.65;;;5.00;;
56345;SDS011;42246;46.096;13.644;2024-02-04T08:36:07;9.00;;;6.40;;
56345;SDS011;42246;46.096;13.644;2024-02-04T08:38:35;8.82;;;4.28;;
56345;SDS011;42246;46.096;13.644;2024-02-04T08:41:01;7.70;;;4.93;;
56345;SDS011;42246;46.096;13.644;2024-02-04T08:43:26;11.82;;;5.72;;
56345;SDS011;42246;46.096;13.644;2024-02-04T08:45:52;11.82;;;7.40;;
56345;SDS011;42246;46.096;13.644;2024-02-04T08:48:17;10.98;;;5.95;;
56345;SDS011;42246;46.096;13.644;2024-02-04T08:50:43;13.60;;;5.95;;
56345;SDS011;42246;46.096;13.644;2024-02-04T08:53:08;8.88;;;4.07;;
56345;SDS011;42246;46.096;13.644;2024-02-04T08:55:33;7.97;;;3.38;;
56345;SDS011;42246;46.096;13.644;2024-02-04T08:57:59;7.63;;;4.22;;
56345;SDS011;42246;46.096;13.644;2024-02-04T09:00:24;7.25;;;3.65;;
56345;SDS011;42246;46.096;13.644;2024-02-04T09:02:50;6.72;;;3.88;;
56345;SDS011;42246;46.096;13.644;2024-02-04T09:05:15;6.20;;;3.95;;
56345;SDS011;42246;46.096;13.644;2024-02-04T09:07:43;8.27;;;5.22;;
56345;SDS011;42246;46.096;13.644;2024-02-04T09:10:08;8.15;;;4.53;;
56345;SDS011;42246;46.096;13.644;2024-02-04T09:12:34;8.43;;;4.10;;
56345;SDS011;42246;46.096;13.644;2024-02-04T09:14:59;5.78;;;4.25;;
56345;SDS011;42246;46.096;13.644;2024-02-04T09:17:25;18.35;;;11.25;;
56345;SDS011;42246;46.096;13.644;2024-02-04T09:19:50;12.80;;;7.32;;
56345;SDS011;42246;46.096;13.644;2024-02-04T09:22:16;11.98;;;5.72;;
56345;SDS011;42246;46.096;13.644;2024-02-04T09:24:41;8.10;;;4.53;;
56345;SDS011;42246;46.096;13.644;2024-02-04T09:27:07;8.00;;;4.80;;
56345;SDS011;42246;46.096;13.644;2024-02-04T09:29:32;9.80;;;4.20;;
56345;SDS011;42246;46.096;13.644;2024-02-04T09:31:59;8.63;;;3.75;;
56345;SDS011;42246;46.096;13.644;2024-02-04T09:34:25;7.28;;;4.00;;
56345;SDS011;42246;46.096;13.644;2024-02-04T09:36:50;7.85;;;5.78;;
56345;SDS011;42246;46.096;13.644;2024-02-04T09:39:18;7.22;;;3.45;;
56345;SDS011;42246;46.096;13.644;2024-02-04T09:41:44;13.23;;;6.68;;
56345;SDS011;42246;46.096;13.644;2024-02-04T09:44:09;14.40;;;7.25;;
56345;SDS011;42246;46.096;13.644;2024-02-04T09:46:35;21.38;;;9.82;;
56345;SDS011;42246;46.096;13.644;2024-02-04T09:49:00;16.35;;;8.32;;
56345;SDS011;42246;46.096;13.644;2024-02-04T09:51:27;9.75;;;5.30;;
56345;SDS011;42246;46.096;13.644;2024-02-04T09:53:53;11.80;;;5.25;;
56345;SDS011;42246;46.096;13.644;2024-02-04T09:56:23;11.02;;;7.03;;
56345;SDS011;42246;46.096;13.644;2024-02-04T09:58:50;9.65;;;6.13;;
56345;SDS011;42246;46.096;13.644;2024-02-04T10:01:18;16.15;;;11.00;;
56345;SDS011;42246;46.096;13.644;2024-02-04T10:03:44;7.93;;;4.07;;
56345;SDS011;42246;46.096;13.644;2024-02-04T10:06:09;10.07;;;4.60;;
56345;SDS011;42246;46.096;13.644;2024-02-04T10:08:35;5.07;;;2.10;;
56345;SDS011;42246;46.096;13.644;2024-02-04T10:11:01;10.32;;;5.60;;
56345;SDS011;42246;46.096;13.644;2024-02-04T10:13:27;17.63;;;6.45;;
56345;SDS011;42246;46.096;13.644;2024-02-04T10:15:52;10.20;;;6.03;;
56345;SDS011;42246;46.096;13.644;2024-02-04T10:18:18;10.75;;;4.00;;
56345;SDS011;42246;46.096;13.644;2024-02-04T10:20:43;5.75;;;3.78;;
56345;SDS011;42246;46.096;13.644;2024-02-04T10:23:09;8.13;;;5.43;;
56345;SDS011;42246;46.096;13.644;2024-02-04T10:25:34;9.38;;;3.58;;
56345;SDS011;42246;46.096;13.644;2024-02-04T10:28:00;10.38;;;4.97;;
56345;SDS011;42246;46.096;13.644;2024-02-04T10:30:26;7.15;;;5.05;;
56345;SDS011;42246;46.096;13.644;2024-02-04T10:32:52;5.07;;;3.03;;
56345;SDS011;42246;46.096;13.644;2024-02-04T10:35:21;5.25;;;2.28;;
56345;SDS011;42246;46.096;13.644;2024-02-04T10:37:48;6.88;;;3.65;;
56345;SDS011;42246;46.096;13.644;2024-02-04T10:40:15;7.30;;;5.13;;
56345;SDS011;42246;46.096;13.644;2024-02-04T10:42:42;9.57;;;5.47;;
56345;SDS011;42246;46.096;13.644;2024-02-04T10:45:08;10.52;;;5.22;;
56345;SDS011;42246;46.096;13.644;2024-02-04T10:47:38;8.95;;;6.25;;
56345;SDS011;42246;46.096;13.644;2024-02-04T10:50:04;7.57;;;4.95;;
56345;SDS011;42246;46.096;13.644;2024-02-04T10:52:37;10.68;;;6.55;;
56345;SDS011;42246;46.096;13.644;2024-02-04T10:55:08;14.80;;;6.27;;
56345;SDS011;42246;46.096;13.644;2024-02-04T10:57:37;21.80;;;10.52;;
56345;SDS011;42246;46.096;13.644;2024-02-04T11:00:04;8.60;;;4.82;;
56345;SDS011;42246;46.096;13.644;2024-02-04T11:02:36;11.05;;;5.93;;
56345;SDS011;42246;46.096;13.644;2024-02-04T11:05:03;6.80;;;4.65;;
56345;SDS011;42246;46.096;13.644;2024-02-04T11:07:33;12.55;;;6.18;;
56345;SDS011;42246;46.096;13.644;2024-02-04T11:09:59;9.43;;;5.28;;
56345;SDS011;42246;46.096;13.644;2024-02-04T11:12:25;14.55;;;4.75;;
56345;SDS011;42246;46.096;13.644;2024-02-04T11:14:53;16.63;;;7.10;;
56345;SDS011;42246;46.096;13.644;2024-02-04T11:28:16;19.20;;;8.38;;
56345;SDS011;42246;46.096;13.644;2024-02-04T11:30:44;12.35;;;6.90;;
56345;SDS011;42246;46.096;13.644;2024-02-04T11:33:11;9.85;;;5.25;;
56345;SDS011;42246;46.096;13.644;2024-02-04T11:35:37;13.32;;;5.47;;
56345;SDS011;42246;46.096;13.644;2024-02-04T11:38:02;11.88;;;6.03;;
56345;SDS011;42246;46.096;13.644;2024-02-04T11:40:35;19.15;;;6.78;;
56345;SDS011;42246;46.096;13.644;2024-02-04T11:43:05;12.18;;;7.47;;
56345;SDS011;42246;46.096;13.644;2024-02-04T11:45:38;16.60;;;6.90;;
56345;SDS011;42246;46.096;13.644;2024-02-04T11:48:06;20.58;;;6.95;;
56345;SDS011;42246;46.096;13.644;2024-02-04T11:50:35;18.02;;;8.68;;
56345;SDS011;42246;46.096;13.644;2024-02-04T11:53:11;29.50;;;9.75;;
56345;SDS011;42246;46.096;13.644;2024-02-04T11:55:41;26.17;;;9.32;;
56345;SDS011;42246;46.096;13.644;2024-02-04T11:58:07;24.25;;;11.65;;
56345;SDS011;42246;46.096;13.644;2024-02-04T12:00:34;30.35;;;12.75;;
56345;SDS011;42246;46.096;13.644;2024-02-04T12:03:03;24.25;;;13.43;;
56345;SDS011;42246;46.096;13.644;2024-02-04T12:05:33;28.20;;;13.65;;
56345;SDS011;42246;46.096;13.644;2024-02-04T12:08:03;35.15;;;15.68;;
56345;SDS011;42246;46.096;13.644;2024-02-04T12:10:30;30.75;;;16.50;;
56345;SDS011;42246;46.096;13.644;2024-02-04T12:12:58;34.50;;;13.98;;
56345;SDS011;42246;46.096;13.644;2024-02-04T12:15:24;36.05;;;16.27;;
56345;SDS011;42246;46.096;13.644;2024-02-04T12:17:50;37.67;;;19.73;;
56345;SDS011;42246;46.096;13.644;2024-02-04T12:20:16;36.53;;;18.23;;
56345;SDS011;42246;46.096;13.644;2024-02-04T12:22:42;34.80;;;17.60;;
56345;SDS011;42246;46.096;13.644;2024-02-04T12:25:08;36.97;;;18.55;;
56345;SDS011;42246;46.096;13.644;2024-02-04T12:27:34;26.98;;;15.60;;
56345;SDS011;42246;46.096;13.644;2024-02-04T12:29:59;27.83;;;15.52;;
56345;SDS011;42246;46.096;13.644;2024-02-04T12:32:25;27.13;;;17.13;;
56345;SDS011;42246;46.096;13.644;2024-02-04T12:34:51;26.77;;;14.45;;
56345;SDS011;42246;46.096;13.644;2024-02-04T12:37:19;26.27;;;15.45;;
56345;SDS011;42246;46.096;13.644;2024-02-04T12:39:44;29.17;;;16.42;;
56345;SDS011;42246;46.096;13.644;2024-02-04T12:42:10;27.08;;;15.40;;
56345;SDS011;42246;46.096;13.644;2024-02-04T12:44:35;26.38;;;16.33;;
56345;SDS011;42246;46.096;13.644;2024-02-04T12:47:01;24.27;;;13.80;;
56345;SDS011;42246;46.096;13.644;2024-02-04T12:49:27;28.55;;;16.10;;
56345;SDS011;42246;46.096;13.644;2024-02-04T12:52:03;33.75;;;19.15;;
56345;SDS011;42246;46.096;13.644;2024-02-04T12:54:29;54.72;;;27.98;;
56345;SDS011;42246;46.096;13.644;2024-02-04T12:56:54;26.60;;;15.27;;
56345;SDS011;42246;46.096;13.644;2024-02-04T13:01:59;68.88;;;35.45;;
56345;SDS011;42246;46.096;13.644;2024-02-04T13:04:26;62.85;;;35.85;;
56345;SDS011;42246;46.096;13.644;2024-02-04T13:06:52;38.72;;;24.80;;
56345;SDS011;42246;46.096;13.644;2024-02-04T13:09:18;33.58;;;22.95;;
56345;SDS011;42246;46.096;13.644;2024-02-04T13:11:44;24.83;;;17.33;;
56345;SDS011;42246;46.096;13.644;2024-02-04T13:14:10;26.92;;;18.23;;
56345;SDS011;42246;46.096;13.644;2024-02-04T13:16:35;27.80;;;16.75;;
56345;SDS011;42246;46.096;13.644;2024-02-04T13:19:02;26.65;;;16.50;;
56345;SDS011;42246;46.096;13.644;2024-02-04T13:21:28;22.20;;;14.77;;
56345;SDS011;42246;46.096;13.644;2024-02-04T13:23:54;28.35;;;17.73;;
56345;SDS011;42246;46.096;13.644;2024-02-04T13:26:19;34.20;;;17.25;;
56345;SDS011;42246;46.096;13.644;2024-02-04T13:28:45;24.85;;;14.88;;
56345;SDS011;42246;46.096;13.644;2024-02-04T13:31:11;26.50;;;15.27;;
56345;SDS011;42246;46.096;13.644;2024-02-04T13:33:40;29.08;;;15.75;;
56345;SDS011;42246;46.096;13.644;2024-02-04T13:36:06;25.00;;;16.73;;
56345;SDS011;42246;46.096;13.644;2024-02-04T13:38:33;23.13;;;15.68;;
56345;SDS011;42246;46.096;13.644;2024-02-04T13:40:58;29.00;;;16.98;;
56345;SDS011;42246;46.096;13.644;2024-02-04T13:43:24;27.10;;;16.75;;
56345;SDS011;42246;46.096;13.644;2024-02-04T13:45:49;26.75;;;17.73;;
56345;SDS011;42246;46.096;13.644;2024-02-04T13:48:14;30.45;;;16.25;;
56345;SDS011;42246;46.096;13.644;2024-02-04T13:50:40;28.23;;;18.67;;
56345;SDS011;42246;46.096;13.644;2024-02-04T13:53:05;28.10;;;17.42;;
56345;SDS011;42246;46.096;13.644;2024-02-04T13:55:31;30.05;;;18.08;;
56345;SDS011;42246;46.096;13.644;2024-02-04T13:57:56;28.00;;;17.10;;
56345;SDS011;42246;46.096;13.644;2024-02-04T14:00:22;28.52;;;19.73;;
56345;SDS011;42246;46.096;13.644;2024-02-04T14:02:47;35.13;;;20.48;;
56345;SDS011;42246;46.096;13.644;2024-02-04T14:05:13;29.02;;;17.92;;
56345;SDS011;42246;46.096;13.644;2024-02-04T14:07:38;36.42;;;18.15;;
56345;SDS011;42246;46.096;13.644;2024-02-04T14:10:04;28.30;;;18.70;;
56345;SDS011;42246;46.096;13.644;2024-02-04T14:12:30;34.60;;;20.48;;
56345;SDS011;42246;46.096;13.644;2024-02-04T14:14:56;32.72;;;19.73;;
56345;SDS011;42246;46.096;13.644;2024-02-04T14:17:22;31.05;;;18.42;;
56345;SDS011;42246;46.096;13.644;2024-02-04T14:19:48;31.83;;;20.08;;
56345;SDS011;42246;46.096;13.644;2024-02-04T14:22:16;35.15;;;21.52;;
56345;SDS011;42246;46.096;13.644;2024-02-04T14:24:46;36.25;;;20.65;;
56345;SDS011;42246;46.096;13.644;2024-02-04T14:27:11;35.65;;;22.67;;
56345;SDS011;42246;46.096;13.644;2024-02-04T14:29:37;31.15;;;22.23;;
56345;SDS011;42246;46.096;13.644;2024-02-04T14:32:03;39.97;;;22.50;;
56345;SDS011;42246;46.096;13.644;2024-02-04T14:34:28;32.83;;;22.55;;
56345;SDS011;42246;46.096;13.644;2024-02-04T14:36:54;39.35;;;24.23;;
56345;SDS011;42246;46.096;13.644;2024-02-04T14:39:19;42.92;;;23.83;;
56345;SDS011;42246;46.096;13.644;2024-02-04T14:41:45;41.50;;;23.48;;